Time;durP1;ratioP1;P1;durP2;ratioP2;P2;SDS_P1;SDS_P2;PMS_P1;PMS_P2;Temp;Humidity;BMP_temperature;BMP_pressure;BME280_temperature;BME280_humidity;BME280_pressure;Samples;Min_cycle;Max_cycle;Signal;HPM_P1;HPM_P2
2022/02/10 00:04:22;;;;;;;22.43;11.07;;;3.70;99.70;;;;;;5067996;28;20458;-66
2022/02/10 00:07:04;;;;;;;25.70;10.77;;;3.50;99.70;;;;;;5067075;28;20557;-68
2022/02/10 00:15:35;;;;;;;23.80;11.17;;;3.50;99.70;;;;;;5067463;28;20426;-66
2022/02/10 00:18:09;;;;;;;23.70;11.37;;;3.30;99.70;;;;;;5067313;28;20439;-67
2022/02/10 00:20:43;;;;;;;24.40;11.10;;;3.30;99.70;;;;;;5067545;28;20474;-66
2022/02/10 00:23:24;;;;;;;24.53;11.20;;;3.30;99.70;;;;;;5067438;28;20447;-66
2022/02/10 00:34:29;;;;;;;23.33;11.63;;;3.30;99.70;;;;;;5042584;28;20462;-66
2022/02/10 00:37:11;;;;;;;24.90;11.90;;;3.20;99.70;;;;;;5066925;28;20516;-67
2022/02/10 00:40:02;;;;;;;27.67;11.60;;;3.20;99.70;;;;;;5065629;28;20526;-67
2022/02/10 00:42:29;;;;;;;20.20;10.87;;;3.20;99.70;;;;;;5053926;28;20958;-67
2022/02/10 00:44:56;;;;;;;23.90;11.20;;;3.30;99.70;;;;;;5053617;28;20447;-67
2022/02/10 00:47:25;;;;;;;30.50;11.33;;;3.20;99.70;;;;;;5053674;28;20471;-66
2022/02/10 00:49:52;;;;;;;21.80;11.33;;;3.20;99.70;;;;;;5053605;28;20475;-66
2022/02/10 00:52:20;;;;;;;20.80;9.97;;;3.10;99.70;;;;;;5053620;28;20543;-66
2022/02/10 00:54:46;;;;;;;21.53;10.83;;;3.20;99.70;;;;;;5053438;28;20451;-64
2022/02/10 00:57:13;;;;;;;23.73;11.10;;;3.20;99.70;;;;;;5053590;28;20464;-66
2022/02/10 00:59:59;;;;;;;19.97;10.27;;;3.20;99.70;;;;;;5053364;28;20440;-68
2022/02/10 01:11:17;;;;;;;26.23;11.33;;;2.80;99.70;;;;;;4975719;28;20459;-67
2022/02/10 01:13:53;;;;;;;20.77;9.80;;;2.80;99.70;;;;;;5053315;28;20500;-66
2022/02/10 01:24:37;;;;;;;20.57;10.60;;;3.10;99.70;;;;;;5053158;28;20496;-67
2022/02/10 01:29:49;;;;;;;20.37;10.23;;;3.30;99.70;;;;;;5052940;28;20478;-66
2022/02/10 01:32:17;;;;;;;22.70;10.83;;;3.20;99.70;;;;;;5052803;28;20447;-67
2022/02/10 01:34:48;;;;;;;23.60;11.30;;;3.00;99.70;;;;;;5052798;28;20912;-67
2022/02/10 01:37:15;;;;;;;25.40;11.30;;;2.90;99.70;;;;;;5052977;28;20478;-67
2022/02/10 01:39:48;;;;;;;24.10;11.30;;;3.00;99.70;;;;;;5052751;28;20444;-66
2022/02/10 02:04:13;;;;;;;19.30;9.33;;;3.60;99.70;;;;;;5052366;28;20419;-67
2022/02/10 02:06:44;;;;;;;21.13;10.20;;;3.30;99.70;;;;;;5051588;28;20472;-66
2022/02/10 02:09:13;;;;;;;20.83;9.70;;;3.30;99.70;;;;;;5052017;28;20487;-66
2022/02/10 02:11:43;;;;;;;24.80;10.10;;;3.30;99.70;;;;;;5052265;28;20447;-67
2022/02/10 02:14:13;;;;;;;19.80;9.67;;;3.20;99.70;;;;;;5052221;28;20501;-66
2022/02/10 02:16:45;;;;;;;20.93;10.63;;;3.20;99.70;;;;;;5051883;28;20460;-66
2022/02/10 02:19:11;;;;;;;22.43;10.03;;;3.20;99.70;;;;;;5051801;28;20479;-66
2022/02/10 02:21:40;;;;;;;21.87;10.57;;;3.30;99.70;;;;;;5052127;28;20501;-66
2022/02/10 02:24:08;;;;;;;22.40;10.40;;;3.20;99.70;;;;;;5051933;28;20447;-66
2022/02/10 02:26:36;;;;;;;19.60;9.87;;;3.00;99.70;;;;;;5051618;28;20483;-66
2022/02/10 02:29:06;;;;;;;20.93;9.80;;;3.20;99.70;;;;;;5051578;28;20998;-66
2022/02/10 02:31:39;;;;;;;20.73;10.10;;;3.10;99.70;;;;;;5051860;28;20835;-66
2022/02/10 02:34:38;;;;;;;20.30;9.90;;;2.80;99.70;;;;;;5051921;28;20443;-65
2022/02/10 02:37:29;;;;;;;20.63;9.47;;;2.80;99.70;;;;;;5051324;28;20524;-66
2022/02/10 02:40:27;;;;;;;27.80;9.23;;;2.80;99.70;;;;;;5051639;28;20444;-66
2022/02/10 03:05:07;;;;;;;20.33;9.73;;;2.70;99.70;;;;;;5050893;28;20422;-66
2022/02/10 03:07:41;;;;;;;17.57;9.57;;;2.60;99.70;;;;;;5050823;28;20439;-66
2022/02/10 03:10:25;;;;;;;20.07;9.70;;;2.60;99.70;;;;;;5051103;28;20478;-66
2022/02/10 03:12:53;;;;;;;24.60;9.40;;;2.70;99.70;;;;;;5051232;28;20821;-66
2022/02/10 03:15:27;;;;;;;23.10;9.77;;;2.80;99.70;;;;;;5050738;28;20444;-66
2022/02/10 03:20:50;;;;;;;20.13;9.10;;;2.50;99.70;;;;;;5050722;28;20439;-67
2022/02/10 04:02:50;;;;;;;21.27;9.30;;;1.90;99.70;;;;;;4989085;28;20430;-66
2022/02/10 04:05:45;;;;;;;18.60;9.27;;;1.80;99.70;;;;;;4988713;28;20447;-66
2022/02/10 04:08:27;;;;;;;17.43;9.13;;;1.80;99.70;;;;;;5040016;28;20585;-63
2022/02/10 04:14:01;;;;;;;23.33;12.00;;;1.70;99.70;;;;;;5008655;28;20944;-66
2022/02/10 04:16:31;;;;;;;17.57;8.93;;;1.80;99.70;;;;;;5010887;28;20460;-66
2022/02/10 04:21:54;;;;;;;18.80;8.83;;;1.80;99.70;;;;;;5054384;28;20508;-65
2022/02/10 04:24:36;;;;;;;18.43;8.37;;;1.90;99.70;;;;;;5054315;28;20496;-66
2022/02/10 04:27:09;;;;;;;17.67;8.50;;;2.00;99.70;;;;;;5053896;28;20469;-65
2022/02/10 04:30:03;;;;;;;20.53;8.40;;;2.10;99.70;;;;;;5053897;28;20905;-66
2022/02/10 04:38:33;;;;;;;17.40;8.37;;;2.20;99.70;;;;;;5053971;28;20427;-65
2022/02/10 04:44:22;;;;;;;20.40;8.10;;;2.10;99.70;;;;;;4997312;28;20670;-66
2022/02/10 04:57:58;;;;;;;17.17;8.57;;;2.40;99.70;;;;;;5022494;28;20434;-66
2022/02/10 05:00:36;;;;;;;16.57;8.10;;;2.50;99.70;;;;;;5053513;28;20439;-66
2022/02/10 05:03:31;;;;;;;20.23;8.37;;;2.40;99.70;;;;;;5053634;28;20439;-65
2022/02/10 05:06:54;;;;;;;17.93;8.80;;;2.20;99.70;;;;;;5053150;28;20463;-66
2022/02/10 05:15:17;;;;;;;18.37;8.77;;;2.00;99.70;;;;;;4991626;28;20434;-66
2022/02/10 05:17:58;;;;;;;18.63;9.40;;;1.90;99.70;;;;;;5053338;28;20874;-67
2022/02/10 05:23:22;;;;;;;18.10;8.67;;;1.80;99.70;;;;;;5052696;28;20434;-66
2022/02/10 05:31:37;;;;;;;23.07;8.93;;;2.10;99.70;;;;;;5031905;28;20599;-65
2022/02/10 05:34:06;;;;;;;18.57;8.43;;;2.20;99.70;;;;;;5033138;28;20448;-65
2022/02/10 05:36:34;;;;;;;16.63;8.40;;;2.00;99.70;;;;;;5032798;28;20452;-64
2022/02/10 05:39:10;;;;;;;17.83;8.50;;;1.90;99.70;;;;;;5032797;28;20469;-65
2022/02/10 05:41:57;;;;;;;17.27;8.83;;;1.80;99.70;;;;;;5032918;28;20462;-66
2022/02/10 05:44:45;;;;;;;19.40;10.00;;;1.60;99.70;;;;;;5032782;28;20449;-65
2022/02/10 05:50:39;;;;;;;18.80;8.93;;;1.80;99.70;;;;;;5025345;28;20483;-65
2022/02/10 05:56:00;;;;;;;19.33;9.47;;;1.70;99.70;;;;;;5024582;28;20456;-65
2022/02/10 05:58:36;;;;;;;22.53;10.07;;;1.60;99.70;;;;;;5034029;28;20452;-65
2022/02/10 06:51:11;;;;;;;21.10;8.07;;;1.70;99.70;;;;;;5031012;28;21009;-66
2022/02/10 06:53:51;;;;;;;22.83;9.13;;;1.50;99.70;;;;;;5030160;28;20538;-66
2022/02/10 07:10:31;;;;;;;18.73;9.03;;;1.70;99.70;;;;;;5031273;28;20541;-66
2022/02/10 07:44:03;;;;;;;19.00;9.10;;;2.40;99.70;;;;;;5031061;28;20454;-66
2022/02/10 07:49:28;;;;;;;16.00;7.90;;;2.70;99.70;;;;;;4999255;28;20982;-65
2022/02/10 07:54:56;;;;;;;14.27;7.50;;;2.60;99.70;;;;;;5034300;28;20431;-65
2022/02/10 07:57:34;;;;;;;15.60;8.00;;;2.70;99.70;;;;;;5035013;28;20903;-66
2022/02/10 08:49:54;;;;;;;20.70;8.77;;;4.10;99.70;;;;;;5013951;28;20549;-65
2022/02/10 08:58:19;;;;;;;21.87;9.00;;;4.40;99.70;;;;;;5009708;28;20444;-66
2022/02/10 09:03:39;;;;;;;14.90;6.20;;;4.90;99.70;;;;;;5033354;28;20482;-67
2022/02/10 09:06:15;;;;;;;12.03;5.57;;;5.30;99.70;;;;;;5033133;28;20907;-64
2022/02/10 09:12:07;;;;;;;11.47;6.33;;;5.80;99.70;;;;;;4987904;28;20590;-67
2022/02/10 09:14:56;;;;;;;9.30;5.07;;;5.80;99.70;;;;;;4984873;28;20488;-66
2022/02/10 09:20:55;;;;;;;11.73;5.00;;;6.30;99.70;;;;;;5032057;28;20464;-65
2022/02/10 09:49:04;;;;;;;10.23;4.80;;;12.10;99.70;;;;;;5052885;28;20493;-68
2022/02/10 09:56:50;;;;;;;10.20;4.90;;;12.80;99.70;;;;;;5051894;28;20966;-67
2022/02/10 10:02:09;;;;;;;10.63;4.97;;;12.50;99.70;;;;;;5046954;28;21177;-67
2022/02/10 10:04:41;;;;;;;12.73;4.33;;;12.60;99.70;;;;;;5034660;28;20985;-68
2022/02/10 10:07:23;;;;;;;9.60;4.50;;;12.60;99.70;;;;;;5029827;28;20451;-67
2022/02/10 10:10:03;;;;;;;8.73;4.23;;;12.30;99.70;;;;;;5030401;28;21104;-66
2022/02/10 10:15:40;;;;;;;8.90;4.60;;;12.10;99.70;;;;;;5028303;28;20940;-68
2022/02/10 10:18:38;;;;;;;11.70;4.53;;;11.90;99.70;;;;;;5032056;28;20551;-67
2022/02/10 10:21:23;;;;;;;11.47;4.90;;;11.50;99.70;;;;;;5032146;28;20445;-68
2022/02/10 10:24:09;;;;;;;9.93;4.37;;;11.00;99.70;;;;;;5032125;28;20506;-67
2022/02/10 10:26:54;;;;;;;19.30;5.00;;;11.00;99.70;;;;;;5031754;28;20449;-69
2022/02/10 10:52:04;;;;;;;10.37;5.00;;;10.60;99.70;;;;;;5029824;28;20527;-71
2022/02/10 10:54:37;;;;;;;11.60;5.47;;;10.70;99.70;;;;;;5029220;28;20440;-71
2022/02/10 10:57:13;;;;;;;10.50;4.97;;;10.70;99.70;;;;;;5029542;28;20468;-71
2022/02/10 11:00:06;;;;;;;10.23;5.00;;;10.60;99.70;;;;;;5030573;28;20464;-70
2022/02/10 11:36:58;;;;;;;13.73;6.30;;;10.80;99.70;;;;;;5031004;28;20423;-71
2022/02/10 11:39:39;;;;;;;12.43;5.33;;;10.90;99.70;;;;;;5031067;28;20825;-70
2022/02/10 13:03:20;;;;;;;23.27;9.50;;;10.70;99.70;;;;;;4959767;28;20535;-70
2022/02/10 14:11:14;;;;;;;21.10;8.10;;;8.80;99.70;;;;;;5032617;28;20479;-71
2022/02/10 14:13:40;;;;;;;16.43;8.20;;;8.70;99.70;;;;;;5031790;28;20964;-71
2022/02/10 14:16:29;;;;;;;17.17;8.50;;;8.70;99.70;;;;;;5032308;28;20789;-71
2022/02/10 14:19:08;;;;;;;19.60;8.83;;;8.60;99.70;;;;;;5032153;28;20464;-72
2022/02/10 14:21:44;;;;;;;16.30;8.60;;;8.60;99.70;;;;;;5032348;28;20444;-71
2022/02/10 14:26:55;;;;;;;21.30;8.53;;;8.40;99.70;;;;;;5032232;28;20428;-70
2022/02/10 14:29:22;;;;;;;19.10;8.10;;;8.40;99.70;;;;;;5031982;28;20476;-70
2022/02/10 14:31:53;;;;;;;17.13;8.13;;;8.40;99.70;;;;;;5031895;28;20484;-70
2022/02/10 14:34:25;;;;;;;17.80;7.70;;;8.40;99.70;;;;;;5032107;28;20870;-70
2022/02/10 14:37:10;;;;;;;18.23;8.43;;;8.40;99.70;;;;;;5031875;28;20882;-71
2022/02/10 14:39:57;;;;;;;16.30;7.60;;;8.30;99.70;;;;;;5031945;28;20848;-71
2022/02/10 15:13:52;;;;;;;25.17;10.10;;;7.80;99.70;;;;;;5031065;28;20960;-71
2022/02/10 15:21:39;;;;;;;21.23;8.97;;;7.70;99.70;;;;;;5030752;28;20432;-71
2022/02/10 15:33:20;;;;;;;17.23;8.30;;;7.80;99.70;;;;;;5023332;28;20507;-71
2022/02/10 15:36:07;;;;;;;19.77;8.60;;;7.90;99.70;;;;;;5030662;28;20451;-71
2022/02/10 15:50:04;;;;;;;10.67;5.40;;;7.80;99.70;;;;;;5031034;28;20440;-71
2022/02/10 15:52:58;;;;;;;12.47;5.00;;;7.90;99.70;;;;;;5031027;28;20480;-70
2022/02/10 15:55:52;;;;;;;9.53;4.70;;;8.00;99.70;;;;;;5030645;28;20445;-70
2022/02/10 16:12:49;;;;;;;12.40;4.73;;;8.00;99.70;;;;;;5032201;28;20474;-71
2022/02/10 16:17:43;;;;;;;12.67;5.57;;;8.00;99.70;;;;;;5034694;28;20424;-71
2022/02/10 16:20:17;;;;;;;11.17;4.77;;;8.00;99.70;;;;;;5034526;28;20928;-71
2022/02/10 16:22:58;;;;;;;8.60;4.33;;;8.00;99.70;;;;;;5033204;28;20948;-71
2022/02/10 16:25:26;;;;;;;9.80;4.80;;;8.00;99.70;;;;;;5029679;28;20473;-71
2022/02/10 16:28:00;;;;;;;10.10;4.60;;;7.90;99.70;;;;;;5021416;28;20432;-71
2022/02/10 16:30:28;;;;;;;10.43;4.30;;;8.00;99.70;;;;;;5033928;28;20526;-70
2022/02/10 16:32:56;;;;;;;10.97;4.70;;;7.90;99.70;;;;;;5020608;28;20600;-71
2022/02/10 16:35:25;;;;;;;9.50;4.20;;;7.90;99.70;;;;;;5014214;28;20448;-70
2022/02/10 16:37:51;;;;;;;9.10;4.50;;;7.90;99.70;;;;;;5014172;28;21007;-71
2022/02/10 16:40:18;;;;;;;9.33;4.30;;;7.90;99.70;;;;;;5018230;28;20456;-70
2022/02/10 16:42:47;;;;;;;10.57;4.23;;;7.90;99.70;;;;;;5034170;28;20498;-71
2022/02/10 16:45:14;;;;;;;11.83;5.40;;;7.90;99.70;;;;;;5033850;28;20498;-70
2022/02/10 16:47:42;;;;;;;13.87;6.87;;;7.80;99.70;;;;;;5032279;28;20463;-70
2022/02/10 16:50:09;;;;;;;23.57;9.17;;;7.80;99.70;;;;;;5033854;28;20842;-71
2022/02/10 16:52:41;;;;;;;17.80;8.80;;;7.70;99.70;;;;;;5022146;28;20542;-71
2022/02/10 16:55:17;;;;;;;21.20;8.60;;;7.60;99.70;;;;;;5014002;28;20998;-71
2022/02/10 16:57:51;;;;;;;21.23;9.10;;;7.60;99.70;;;;;;5020974;28;20517;-70
2022/02/10 17:00:46;;;;;;;25.93;9.20;;;7.70;99.70;;;;;;5033600;28;20479;-71
2022/02/10 17:03:30;;;;;;;22.20;10.67;;;7.60;99.70;;;;;;5033199;28;20522;-70
2022/02/10 17:06:09;;;;;;;17.30;8.10;;;7.60;99.70;;;;;;5033530;28;20535;-71
2022/02/10 17:14:10;;;;;;;11.60;4.67;;;7.60;99.70;;;;;;5033665;28;20502;-70
2022/02/10 17:19:31;;;;;;;8.50;4.30;;;7.70;99.70;;;;;;5033371;28;20444;-70
2022/02/10 17:27:29;;;;;;;12.63;4.80;;;7.60;99.70;;;;;;5033416;28;20424;-67
2022/02/10 17:33:05;;;;;;;12.47;5.27;;;7.70;99.70;;;;;;4952528;28;20540;-67
2022/02/10 17:35:47;;;;;;;9.33;4.40;;;7.70;99.70;;;;;;5019384;28;20502;-68
2022/02/10 17:46:39;;;;;;;8.13;4.07;;;7.70;99.70;;;;;;5029215;28;20412;-67
2022/02/10 17:51:57;;;;;;;9.17;4.20;;;7.60;99.70;;;;;;5032821;28;20587;-69
2022/02/10 17:54:24;;;;;;;8.20;4.23;;;7.60;99.70;;;;;;5013051;28;20488;-69
2022/02/10 17:56:51;;;;;;;9.03;3.90;;;7.60;99.70;;;;;;5012324;28;20453;-69
2022/02/10 17:59:20;;;;;;;9.33;4.53;;;7.60;99.70;;;;;;5012129;28;20465;-67
2022/02/10 18:01:48;;;;;;;7.63;3.93;;;7.60;99.70;;;;;;5023899;28;20494;-67
2022/02/10 18:04:16;;;;;;;8.00;3.70;;;7.60;99.70;;;;;;5032557;28;20939;-67
2022/02/10 18:06:45;;;;;;;8.10;4.10;;;7.60;99.70;;;;;;5030768;28;20441;-68
2022/02/10 18:09:47;;;;;;;7.27;3.83;;;7.50;99.70;;;;;;5030013;28;21017;-68
2022/02/10 18:15:01;;;;;;;7.53;3.90;;;7.50;99.70;;;;;;5030732;28;20424;-68
2022/02/10 18:17:32;;;;;;;7.33;3.87;;;7.50;99.70;;;;;;5030911;28;20559;-68
2022/02/10 18:20:03;;;;;;;8.53;3.97;;;7.50;99.70;;;;;;5030275;28;20506;-68
2022/02/10 18:22:45;;;;;;;8.23;4.20;;;7.50;99.70;;;;;;5031153;28;20834;-68
2022/02/10 18:25:32;;;;;;;12.23;4.77;;;7.50;99.70;;;;;;5031961;28;20445;-68
2022/02/10 18:28:19;;;;;;;11.67;5.87;;;7.50;99.70;;;;;;5031861;28;20448;-68
2022/02/10 18:33:49;;;;;;;8.37;4.07;;;7.50;99.70;;;;;;5031780;28;20416;-68
2022/02/10 19:07:03;;;;;;;11.63;5.93;;;7.20;99.70;;;;;;5030070;28;20813;-69
2022/02/10 19:09:37;;;;;;;14.33;6.93;;;7.20;99.70;;;;;;5022488;28;20935;-69
2022/02/10 19:12:14;;;;;;;13.87;6.97;;;7.10;99.70;;;;;;5024847;28;20484;-69
2022/02/10 19:14:47;;;;;;;14.70;6.20;;;7.00;99.70;;;;;;5030871;28;20456;-69
2022/02/10 19:17:14;;;;;;;19.00;9.00;;;7.00;99.70;;;;;;5031283;28;20470;-69
2022/02/10 19:19:41;;;;;;;27.20;11.47;;;7.10;99.70;;;;;;5033525;28;20475;-69
2022/02/10 19:22:07;;;;;;;19.20;8.70;;;7.10;99.70;;;;;;5029623;28;20562;-69
2022/02/10 19:24:34;;;;;;;14.80;6.50;;;7.20;99.70;;;;;;5022752;28;20445;-68
2022/02/10 19:27:01;;;;;;;11.97;5.90;;;7.10;99.70;;;;;;5029022;28;20514;-69
2022/02/10 19:29:28;;;;;;;15.93;6.57;;;7.20;99.70;;;;;;5030166;28;20480;-69
2022/02/10 19:31:56;;;;;;;15.10;8.23;;;7.30;99.70;;;;;;5029851;28;20485;-69
2022/02/10 19:34:24;;;;;;;21.30;10.60;;;7.20;99.70;;;;;;5029708;28;20491;-69
2022/02/10 19:36:53;;;;;;;16.07;8.27;;;7.00;99.70;;;;;;5029537;28;20455;-69
2022/02/10 19:39:22;;;;;;;13.60;6.73;;;6.90;99.70;;;;;;5027819;28;20552;-69
2022/02/10 19:41:50;;;;;;;13.30;6.20;;;7.00;99.70;;;;;;5027466;28;20441;-69
2022/02/10 19:44:17;;;;;;;13.27;6.03;;;7.00;99.70;;;;;;5027171;28;20492;-69
2022/02/10 19:46:44;;;;;;;10.43;5.70;;;6.90;99.70;;;;;;5030890;28;20468;-69
2022/02/10 19:49:20;;;;;;;11.67;5.70;;;6.80;99.70;;;;;;5032461;28;20477;-69
2022/02/10 19:51:47;;;;;;;10.73;5.70;;;6.80;99.70;;;;;;5025310;28;20519;-68
2022/02/10 19:54:21;;;;;;;11.70;5.97;;;6.60;99.70;;;;;;5027492;28;20440;-68
2022/02/10 19:56:49;;;;;;;10.43;5.40;;;6.60;99.70;;;;;;5034284;28;21010;-68
2022/02/10 19:59:19;;;;;;;12.50;5.80;;;6.60;99.70;;;;;;5034429;28;20526;-68
2022/02/10 20:01:48;;;;;;;10.97;5.60;;;6.60;99.70;;;;;;5034339;28;20480;-70
2022/02/10 20:04:19;;;;;;;11.97;6.07;;;6.60;99.70;;;;;;5034808;28;20966;-69
2022/02/10 20:06:45;;;;;;;9.80;5.63;;;6.60;99.70;;;;;;5029225;28;20460;-70
2022/02/10 20:09:13;;;;;;;11.00;5.40;;;6.50;99.70;;;;;;5034372;28;20472;-69
2022/02/10 20:11:40;;;;;;;11.70;5.43;;;6.50;99.70;;;;;;5028247;28;20461;-69
2022/02/10 20:14:07;;;;;;;12.50;5.50;;;6.40;99.70;;;;;;5034290;28;20452;-69
2022/02/10 20:16:33;;;;;;;10.23;5.70;;;6.40;99.70;;;;;;5033708;28;20440;-69
2022/02/10 20:19:02;;;;;;;13.90;6.73;;;6.30;99.70;;;;;;5033972;28;20492;-70
2022/02/10 20:21:30;;;;;;;15.13;6.87;;;6.30;99.70;;;;;;5033124;28;20440;-69
2022/02/10 20:23:57;;;;;;;15.20;7.07;;;6.20;99.70;;;;;;5033851;28;20966;-69
2022/02/10 20:26:24;;;;;;;15.70;7.30;;;6.20;99.70;;;;;;5030645;28;20461;-69
2022/02/10 20:28:50;;;;;;;16.00;7.13;;;6.10;99.70;;;;;;5030539;28;20654;-69
2022/02/10 20:31:17;;;;;;;18.67;7.10;;;6.10;99.70;;;;;;5031789;28;20463;-69
2022/02/10 20:33:45;;;;;;;9.70;5.53;;;6.20;99.70;;;;;;5030518;28;20480;-69
2022/02/10 20:36:12;;;;;;;10.57;5.77;;;6.10;99.70;;;;;;5028599;28;20460;-69
2022/02/10 20:38:46;;;;;;;14.53;5.80;;;6.10;99.70;;;;;;5031255;28;20452;-69
2022/02/10 20:41:15;;;;;;;12.40;5.60;;;6.00;99.70;;;;;;5029167;28;20967;-69
2022/02/10 20:43:48;;;;;;;15.10;7.00;;;6.00;99.70;;;;;;5033093;28;20457;-69
2022/02/10 20:46:17;;;;;;;13.43;6.90;;;6.00;99.70;;;;;;5031050;28;20491;-69
2022/02/10 20:48:45;;;;;;;12.13;6.77;;;5.90;99.70;;;;;;5032393;28;20452;-69
2022/02/10 20:51:13;;;;;;;14.50;7.63;;;6.00;99.70;;;;;;5032861;28;20835;-69
2022/02/10 20:53:44;;;;;;;17.33;8.43;;;6.00;99.70;;;;;;5033114;28;20514;-69
2022/02/10 20:56:13;;;;;;;18.03;8.67;;;6.00;99.70;;;;;;5032836;28;20447;-69
2022/02/10 20:58:41;;;;;;;16.73;8.37;;;6.10;99.70;;;;;;5026316;28;20467;-69
2022/02/10 21:01:12;;;;;;;18.30;9.33;;;6.10;99.70;;;;;;5031947;28;20453;-69
2022/02/10 21:03:38;;;;;;;18.20;10.20;;;6.10;99.70;;;;;;5028293;28;20464;-69
2022/02/10 21:06:11;;;;;;;29.70;13.53;;;6.10;99.70;;;;;;5026014;28;20834;-69
2022/02/10 21:08:45;;;;;;;34.80;16.63;;;6.00;99.70;;;;;;5032892;28;20451;-69
2022/02/10 21:11:15;;;;;;;38.23;17.23;;;6.10;99.70;;;;;;5033671;28;20460;-69
2022/02/10 21:13:42;;;;;;;38.57;16.20;;;6.00;99.70;;;;;;5028564;28;20480;-69
2022/02/10 21:16:09;;;;;;;34.60;15.40;;;6.00;99.70;;;;;;5028229;28;20449;-69
2022/02/10 21:18:36;;;;;;;37.23;15.53;;;6.10;99.70;;;;;;5030885;28;20457;-69
2022/02/10 21:21:08;;;;;;;35.90;14.33;;;6.00;99.70;;;;;;5030452;28;20459;-68
2022/02/10 21:23:39;;;;;;;29.80;12.97;;;6.00;99.70;;;;;;5031188;28;20842;-69
2022/02/10 21:26:07;;;;;;;27.10;12.30;;;6.00;99.70;;;;;;5027519;28;20520;-69
2022/02/10 21:28:37;;;;;;;30.87;12.73;;;6.00;99.70;;;;;;5032310;28;20448;-69
2022/02/10 21:31:06;;;;;;;28.20;13.20;;;6.00;99.70;;;;;;5033325;28;20445;-69
2022/02/10 21:33:47;;;;;;;25.37;11.70;;;6.10;99.70;;;;;;5032944;28;20920;-69
2022/02/10 21:36:47;;;;;;;20.90;11.10;;;6.10;99.70;;;;;;5024774;28;20467;-69
2022/02/10 21:48:00;;;;;;;18.47;9.47;;;6.10;99.70;;;;;;5028894;28;20944;-69
2022/02/10 21:53:54;;;;;;;12.53;7.10;;;6.20;99.70;;;;;;5032953;28;20491;-69
2022/02/10 21:56:33;;;;;;;13.20;7.30;;;6.30;99.70;;;;;;5029498;28;20437;-69
2022/02/10 22:08:16;;;;;;;25.10;11.90;;;6.40;99.70;;;;;;5032284;28;20952;-70
2022/02/10 22:10:46;;;;;;;25.43;11.60;;;6.40;99.70;;;;;;5031379;28;20920;-69
2022/02/10 22:19:02;;;;;;;50.93;19.33;;;6.50;99.70;;;;;;4961675;28;20585;-69
2022/02/10 22:21:31;;;;;;;49.37;19.07;;;6.50;99.70;;;;;;4957590;28;20448;-70
2022/02/10 22:24:00;;;;;;;43.17;17.20;;;6.60;99.70;;;;;;4990380;28;20887;-69
2022/02/10 22:26:30;;;;;;;26.43;11.27;;;6.60;99.70;;;;;;5031908;28;20457;-69
2022/02/10 22:29:02;;;;;;;28.83;12.10;;;6.60;99.70;;;;;;5039839;28;20472;-69
2022/02/10 22:31:39;;;;;;;22.27;11.10;;;6.60;99.70;;;;;;5051963;28;20443;-69
2022/02/10 22:34:19;;;;;;;23.60;10.80;;;6.70;99.70;;;;;;5028297;28;21006;-69
2022/02/10 22:36:53;;;;;;;22.03;9.97;;;6.70;99.70;;;;;;5029586;28;20573;-68
2022/02/10 22:39:19;;;;;;;24.33;10.90;;;6.70;99.70;;;;;;5028845;28;20476;-69
2022/02/10 22:41:46;;;;;;;19.83;10.10;;;6.80;99.70;;;;;;5031173;28;20940;-69
2022/02/10 22:44:14;;;;;;;23.93;10.07;;;6.70;99.70;;;;;;5031371;28;20441;-69
2022/02/10 22:46:41;;;;;;;23.23;10.87;;;6.60;99.70;;;;;;5031091;28;20448;-69
2022/02/10 22:49:09;;;;;;;28.33;12.37;;;6.80;99.70;;;;;;5028379;28;20869;-68
2022/02/10 22:51:38;;;;;;;29.00;12.07;;;6.80;99.70;;;;;;5030332;28;20468;-69
2022/02/10 22:54:06;;;;;;;29.40;12.83;;;6.70;99.70;;;;;;5030286;28;20487;-67
2022/02/10 22:56:33;;;;;;;24.53;11.57;;;6.70;99.70;;;;;;5029636;28;20453;-69
2022/02/10 22:59:02;;;;;;;24.50;10.90;;;6.70;99.70;;;;;;5032115;28;20842;-68
2022/02/10 23:01:29;;;;;;;22.37;10.47;;;6.60;99.70;;;;;;5031038;28;20968;-69
2022/02/10 23:03:56;;;;;;;19.60;9.67;;;6.60;99.70;;;;;;5031419;28;20455;-69
2022/02/10 23:06:24;;;;;;;19.63;9.60;;;6.60;99.70;;;;;;5031003;28;20445;-68
2022/02/10 23:08:52;;;;;;;18.60;9.17;;;6.60;99.70;;;;;;5031237;28;20530;-69
2022/02/10 23:11:26;;;;;;;17.80;8.90;;;6.60;99.70;;;;;;5031377;28;20963;-69
2022/02/10 23:13:54;;;;;;;22.53;10.27;;;6.50;99.70;;;;;;5033454;28;20494;-68
2022/02/10 23:16:21;;;;;;;19.70;9.73;;;6.50;99.70;;;;;;5051364;28;20892;-69
2022/02/10 23:18:48;;;;;;;24.40;11.30;;;6.50;99.70;;;;;;5050849;28;20459;-69
2022/02/10 23:21:16;;;;;;;22.07;10.73;;;6.40;99.70;;;;;;5050175;28;20447;-69
2022/02/10 23:23:47;;;;;;;18.03;9.30;;;6.40;99.70;;;;;;5050036;28;20440;-69
2022/02/10 23:26:17;;;;;;;18.30;9.93;;;6.40;99.70;;;;;;5030887;28;20441;-69
2022/02/10 23:28:46;;;;;;;19.70;10.07;;;6.40;99.70;;;;;;5030860;28;20455;-69
2022/02/10 23:31:16;;;;;;;18.63;9.80;;;6.30;99.70;;;;;;5031218;28;20447;-69
2022/02/10 23:33:49;;;;;;;19.17;9.23;;;6.30;99.70;;;;;;5032200;28;20487;-67
2022/02/10 23:39:14;;;;;;;19.70;10.33;;;6.20;99.70;;;;;;5027131;28;20455;-67
2022/02/10 23:41:55;;;;;;;21.03;10.00;;;6.20;99.70;;;;;;5031138;28;20539;-67
2022/02/10 23:44:26;;;;;;;23.03;11.87;;;6.20;99.70;;;;;;5030820;28;20441;-67
2022/02/10 23:46:53;;;;;;;24.40;11.27;;;6.20;99.70;;;;;;5030605;28;20444;-67
2022/02/10 23:49:22;;;;;;;30.83;12.87;;;6.30;99.70;;;;;;5030675;28;20551;-67
2022/02/10 23:51:55;;;;;;;24.20;11.57;;;6.20;99.70;;;;;;5030805;28;20947;-67
2022/02/10 23:54:23;;;;;;;29.80;13.53;;;6.20;99.70;;;;;;5030881;28;20740;-68
2022/02/10 23:56:55;;;;;;;28.03;13.07;;;6.20;99.70;;;;;;5030525;28;20444;-68
2022/02/10 23:59:33;;;;;;;26.17;12.50;;;6.20;99.70;;;;;;5030659;28;20901;-67
